sensor_id;sensor_type;location;lat;lon;timestamp;temperature;humidity
19968;DHT22;10145;49.152;9.282;2023-03-23T00:02:11;14.00;93.70
19968;DHT22;10145;49.152;9.282;2023-03-23T00:04:36;14.10;93.50
19968;DHT22;10145;49.152;9.282;2023-03-23T00:07:02;14.10;93.40
19968;DHT22;10145;49.152;9.282;2023-03-23T00:09:28;14.10;93.50
19968;DHT22;10145;49.152;9.282;2023-03-23T00:11:55;14.00;93.30
19968;DHT22;10145;49.152;9.282;2023-03-23T00:14:22;14.00;93.70
19968;DHT22;10145;49.152;9.282;2023-03-23T00:16:49;14.00;93.40
19968;DHT22;10145;49.152;9.282;2023-03-23T00:19:16;14.00;93.40
19968;DHT22;10145;49.152;9.282;2023-03-23T00:21:44;14.10;92.70
19968;DHT22;10145;49.152;9.282;2023-03-23T00:26:39;14.00;93.20
19968;DHT22;10145;49.152;9.282;2023-03-23T00:29:16;14.10;92.80
19968;DHT22;10145;49.152;9.282;2023-03-23T00:31:43;14.10;93.00
19968;DHT22;10145;49.152;9.282;2023-03-23T00:34:16;14.00;93.00
19968;DHT22;10145;49.152;9.282;2023-03-23T00:36:50;14.00;93.20
19968;DHT22;10145;49.152;9.282;2023-03-23T00:39:17;14.00;93.20
19968;DHT22;10145;49.152;9.282;2023-03-23T00:41:43;13.90;93.50
19968;DHT22;10145;49.152;9.282;2023-03-23T00:44:09;13.90;93.50
19968;DHT22;10145;49.152;9.282;2023-03-23T00:46:35;13.90;93.50
19968;DHT22;10145;49.152;9.282;2023-03-23T00:49:13;13.80;93.70
19968;DHT22;10145;49.152;9.282;2023-03-23T00:51:40;13.80;93.80
19968;DHT22;10145;49.152;9.282;2023-03-23T00:54:06;13.80;94.00
19968;DHT22;10145;49.152;9.282;2023-03-23T00:56:33;13.80;94.30
19968;DHT22;10145;49.152;9.282;2023-03-23T00:58:58;13.80;94.00
19968;DHT22;10145;49.152;9.282;2023-03-23T01:01:24;13.90;93.70
19968;DHT22;10145;49.152;9.282;2023-03-23T01:03:49;14.00;93.90
19968;DHT22;10145;49.152;9.282;2023-03-23T01:06:15;14.00;93.90
19968;DHT22;10145;49.152;9.282;2023-03-23T01:08:41;14.10;94.10
19968;DHT22;10145;49.152;9.282;2023-03-23T01:11:15;14.20;93.60
19968;DHT22;10145;49.152;9.282;2023-03-23T01:13:43;14.30;93.70
19968;DHT22;10145;49.152;9.282;2023-03-23T01:16:11;14.20;93.70
19968;DHT22;10145;49.152;9.282;2023-03-23T01:18:37;14.10;93.70
19968;DHT22;10145;49.152;9.282;2023-03-23T01:21:08;14.20;93.50
19968;DHT22;10145;49.152;9.282;2023-03-23T01:23:34;14.20;93.60
19968;DHT22;10145;49.152;9.282;2023-03-23T01:26:07;14.20;93.50
19968;DHT22;10145;49.152;9.282;2023-03-23T01:28:34;14.10;93.80
19968;DHT22;10145;49.152;9.282;2023-03-23T01:31:05;14.20;93.80
19968;DHT22;10145;49.152;9.282;2023-03-23T01:33:32;14.20;93.70
19968;DHT22;10145;49.152;9.282;2023-03-23T01:36:04;14.10;94.10
19968;DHT22;10145;49.152;9.282;2023-03-23T01:38:30;14.10;93.90
19968;DHT22;10145;49.152;9.282;2023-03-23T01:40:56;14.00;94.10
19968;DHT22;10145;49.152;9.282;2023-03-23T01:43:22;14.00;94.20
19968;DHT22;10145;49.152;9.282;2023-03-23T01:45:47;14.00;94.40
19968;DHT22;10145;49.152;9.282;2023-03-23T01:48:18;14.00;94.20
19968;DHT22;10145;49.152;9.282;2023-03-23T01:50:58;14.00;94.30
19968;DHT22;10145;49.152;9.282;2023-03-23T01:53:30;14.00;94.30
19968;DHT22;10145;49.152;9.282;2023-03-23T01:55:57;14.10;94.30
19968;DHT22;10145;49.152;9.282;2023-03-23T01:58:27;14.10;94.30
19968;DHT22;10145;49.152;9.282;2023-03-23T02:00:54;14.10;94.20
19968;DHT22;10145;49.152;9.282;2023-03-23T02:03:21;14.10;94.40
19968;DHT22;10145;49.152;9.282;2023-03-23T02:05:49;14.10;94.20
19968;DHT22;10145;49.152;9.282;2023-03-23T02:08:15;14.00;94.30
19968;DHT22;10145;49.152;9.282;2023-03-23T02:10:41;14.10;94.10
19968;DHT22;10145;49.152;9.282;2023-03-23T02:13:08;14.10;94.30
19968;DHT22;10145;49.152;9.282;2023-03-23T02:15:48;14.10;94.10
19968;DHT22;10145;49.152;9.282;2023-03-23T02:18:40;14.10;94.40
19968;DHT22;10145;49.152;9.282;2023-03-23T02:27:14;14.00;94.50
19968;DHT22;10145;49.152;9.282;2023-03-23T02:35:55;13.80;94.70
19968;DHT22;10145;49.152;9.282;2023-03-23T02:38:30;13.90;94.70
19968;DHT22;10145;49.152;9.282;2023-03-23T02:40:59;13.90;95.10
19968;DHT22;10145;49.152;9.282;2023-03-23T02:43:31;13.90;94.60
19968;DHT22;10145;49.152;9.282;2023-03-23T02:45:59;13.70;94.80
19968;DHT22;10145;49.152;9.282;2023-03-23T02:48:28;13.70;95.00
19968;DHT22;10145;49.152;9.282;2023-03-23T02:50:55;13.60;94.70
19968;DHT22;10145;49.152;9.282;2023-03-23T02:53:23;13.70;94.80
19968;DHT22;10145;49.152;9.282;2023-03-23T02:55:51;13.80;94.70
19968;DHT22;10145;49.152;9.282;2023-03-23T02:58:18;13.80;94.60
19968;DHT22;10145;49.152;9.282;2023-03-23T03:00:44;13.80;94.60
19968;DHT22;10145;49.152;9.282;2023-03-23T03:03:16;14.00;94.40
19968;DHT22;10145;49.152;9.282;2023-03-23T03:08:54;14.00;94.10
19968;DHT22;10145;49.152;9.282;2023-03-23T03:11:18;14.00;94.10
19968;DHT22;10145;49.152;9.282;2023-03-23T03:14:08;14.00;94.00
19968;DHT22;10145;49.152;9.282;2023-03-23T03:16:52;14.00;93.90
19968;DHT22;10145;49.152;9.282;2023-03-23T03:19:29;14.00;93.90
19968;DHT22;10145;49.152;9.282;2023-03-23T03:21:58;14.00;93.80
19968;DHT22;10145;49.152;9.282;2023-03-23T03:24:25;14.00;93.60
19968;DHT22;10145;49.152;9.282;2023-03-23T03:26:54;14.00;93.50
19968;DHT22;10145;49.152;9.282;2023-03-23T03:29:26;14.00;93.30
19968;DHT22;10145;49.152;9.282;2023-03-23T03:31:53;14.00;93.40
19968;DHT22;10145;49.152;9.282;2023-03-23T03:34:21;14.00;93.10
19968;DHT22;10145;49.152;9.282;2023-03-23T03:36:49;14.10;93.10
19968;DHT22;10145;49.152;9.282;2023-03-23T03:39:17;14.10;93.10
19968;DHT22;10145;49.152;9.282;2023-03-23T03:41:45;14.10;93.20
19968;DHT22;10145;49.152;9.282;2023-03-23T03:44:11;14.10;93.20
19968;DHT22;10145;49.152;9.282;2023-03-23T03:46:37;14.10;93.40
19968;DHT22;10145;49.152;9.282;2023-03-23T03:49:05;14.10;93.20
19968;DHT22;10145;49.152;9.282;2023-03-23T03:51:31;14.00;93.40
19968;DHT22;10145;49.152;9.282;2023-03-23T03:53:57;13.90;93.60
19968;DHT22;10145;49.152;9.282;2023-03-23T03:56:23;14.00;93.70
19968;DHT22;10145;49.152;9.282;2023-03-23T03:58:50;13.90;93.70
19968;DHT22;10145;49.152;9.282;2023-03-23T04:01:17;13.80;94.00
19968;DHT22;10145;49.152;9.282;2023-03-23T04:03:43;13.80;94.00
19968;DHT22;10145;49.152;9.282;2023-03-23T04:06:09;13.90;94.00
19968;DHT22;10145;49.152;9.282;2023-03-23T04:08:36;13.90;94.10
19968;DHT22;10145;49.152;9.282;2023-03-23T04:11:07;13.90;93.90
19968;DHT22;10145;49.152;9.282;2023-03-23T04:13:32;14.00;93.70
19968;DHT22;10145;49.152;9.282;2023-03-23T04:15:58;14.10;93.70
19968;DHT22;10145;49.152;9.282;2023-03-23T04:18:23;14.00;94.20
19968;DHT22;10145;49.152;9.282;2023-03-23T04:20:50;14.00;94.10
19968;DHT22;10145;49.152;9.282;2023-03-23T04:23:17;13.90;93.90
19968;DHT22;10145;49.152;9.282;2023-03-23T04:25:47;14.00;93.80
19968;DHT22;10145;49.152;9.282;2023-03-23T04:28:14;14.00;93.70
19968;DHT22;10145;49.152;9.282;2023-03-23T04:30:42;14.00;93.70
19968;DHT22;10145;49.152;9.282;2023-03-23T04:33:09;14.00;94.00
19968;DHT22;10145;49.152;9.282;2023-03-23T04:35:40;14.00;93.80
19968;DHT22;10145;49.152;9.282;2023-03-23T04:38:06;14.00;93.90
19968;DHT22;10145;49.152;9.282;2023-03-23T04:40:35;14.00;93.80
19968;DHT22;10145;49.152;9.282;2023-03-23T04:43:01;13.90;93.80
19968;DHT22;10145;49.152;9.282;2023-03-23T04:45:30;13.90;93.90
19968;DHT22;10145;49.152;9.282;2023-03-23T04:47:56;13.80;94.30
19968;DHT22;10145;49.152;9.282;2023-03-23T04:50:28;13.80;94.30
19968;DHT22;10145;49.152;9.282;2023-03-23T04:52:56;13.70;94.40
19968;DHT22;10145;49.152;9.282;2023-03-23T04:55:24;13.80;94.30
19968;DHT22;10145;49.152;9.282;2023-03-23T04:57:50;13.80;94.10
19968;DHT22;10145;49.152;9.282;2023-03-23T05:00:16;13.80;94.30
19968;DHT22;10145;49.152;9.282;2023-03-23T05:02:43;13.80;94.40
19968;DHT22;10145;49.152;9.282;2023-03-23T05:05:11;13.70;94.60
19968;DHT22;10145;49.152;9.282;2023-03-23T05:07:40;13.60;94.70
19968;DHT22;10145;49.152;9.282;2023-03-23T05:10:07;13.60;94.70
19968;DHT22;10145;49.152;9.282;2023-03-23T05:12:34;13.60;94.70
19968;DHT22;10145;49.152;9.282;2023-03-23T05:14:59;13.60;95.20
19968;DHT22;10145;49.152;9.282;2023-03-23T05:17:25;13.70;95.10
19968;DHT22;10145;49.152;9.282;2023-03-23T05:19:52;13.80;95.00
19968;DHT22;10145;49.152;9.282;2023-03-23T05:22:18;13.70;94.70
19968;DHT22;10145;49.152;9.282;2023-03-23T05:24:46;13.80;94.70
19968;DHT22;10145;49.152;9.282;2023-03-23T05:27:12;13.80;94.60
19968;DHT22;10145;49.152;9.282;2023-03-23T05:29:38;13.80;95.00
19968;DHT22;10145;49.152;9.282;2023-03-23T05:32:07;13.90;94.50
19968;DHT22;10145;49.152;9.282;2023-03-23T05:34:35;14.00;94.60
19968;DHT22;10145;49.152;9.282;2023-03-23T05:37:02;14.00;94.90
19968;DHT22;10145;49.152;9.282;2023-03-23T05:39:29;14.10;94.60
19968;DHT22;10145;49.152;9.282;2023-03-23T05:41:55;14.00;94.60
19968;DHT22;10145;49.152;9.282;2023-03-23T05:44:21;14.00;94.50
19968;DHT22;10145;49.152;9.282;2023-03-23T05:46:47;14.00;94.60
19968;DHT22;10145;49.152;9.282;2023-03-23T05:49:14;14.00;95.20
19968;DHT22;10145;49.152;9.282;2023-03-23T05:51:44;13.90;94.80
19968;DHT22;10145;49.152;9.282;2023-03-23T05:54:11;13.90;94.90
19968;DHT22;10145;49.152;9.282;2023-03-23T05:56:37;13.90;95.30
19968;DHT22;10145;49.152;9.282;2023-03-23T05:59:03;13.90;95.50
19968;DHT22;10145;49.152;9.282;2023-03-23T06:01:29;14.00;94.90
19968;DHT22;10145;49.152;9.282;2023-03-23T06:03:54;14.00;94.80
19968;DHT22;10145;49.152;9.282;2023-03-23T06:06:27;14.00;95.30
19968;DHT22;10145;49.152;9.282;2023-03-23T06:08:53;13.90;95.30
19968;DHT22;10145;49.152;9.282;2023-03-23T06:11:19;13.90;95.30
19968;DHT22;10145;49.152;9.282;2023-03-23T06:13:45;13.90;95.50
19968;DHT22;10145;49.152;9.282;2023-03-23T06:16:10;14.00;95.10
19968;DHT22;10145;49.152;9.282;2023-03-23T06:18:36;14.00;95.20
19968;DHT22;10145;49.152;9.282;2023-03-23T06:21:03;14.00;95.80
19968;DHT22;10145;49.152;9.282;2023-03-23T06:23:29;14.00;95.50
19968;DHT22;10145;49.152;9.282;2023-03-23T06:26:00;14.10;95.30
19968;DHT22;10145;49.152;9.282;2023-03-23T06:28:26;14.10;95.60
19968;DHT22;10145;49.152;9.282;2023-03-23T06:30:52;14.10;95.60
19968;DHT22;10145;49.152;9.282;2023-03-23T06:33:18;14.20;95.50
19968;DHT22;10145;49.152;9.282;2023-03-23T06:35:44;14.20;95.90
19968;DHT22;10145;49.152;9.282;2023-03-23T06:38:10;14.10;96.40
19968;DHT22;10145;49.152;9.282;2023-03-23T06:40:36;14.10;96.80
19968;DHT22;10145;49.152;9.282;2023-03-23T06:43:02;14.10;97.10
19968;DHT22;10145;49.152;9.282;2023-03-23T06:45:29;14.00;97.70
19968;DHT22;10145;49.152;9.282;2023-03-23T06:47:54;14.10;97.30
19968;DHT22;10145;49.152;9.282;2023-03-23T06:50:20;14.00;97.10
19968;DHT22;10145;49.152;9.282;2023-03-23T06:52:50;14.20;97.10
19968;DHT22;10145;49.152;9.282;2023-03-23T06:55:17;14.30;97.00
19968;DHT22;10145;49.152;9.282;2023-03-23T06:57:43;14.30;96.90
19968;DHT22;10145;49.152;9.282;2023-03-23T07:00:11;14.40;96.60
19968;DHT22;10145;49.152;9.282;2023-03-23T07:02:39;14.40;97.10
19968;DHT22;10145;49.152;9.282;2023-03-23T07:05:06;14.50;97.10
19968;DHT22;10145;49.152;9.282;2023-03-23T07:07:32;14.40;96.60
19968;DHT22;10145;49.152;9.282;2023-03-23T07:09:58;14.40;97.00
19968;DHT22;10145;49.152;9.282;2023-03-23T07:12:24;14.30;96.90
19968;DHT22;10145;49.152;9.282;2023-03-23T07:14:49;14.30;97.20
19968;DHT22;10145;49.152;9.282;2023-03-23T07:17:15;14.30;97.40
19968;DHT22;10145;49.152;9.282;2023-03-23T07:19:41;14.30;96.80
19968;DHT22;10145;49.152;9.282;2023-03-23T07:22:07;14.30;97.10
19968;DHT22;10145;49.152;9.282;2023-03-23T07:24:33;14.20;96.90
19968;DHT22;10145;49.152;9.282;2023-03-23T07:26:59;14.20;97.10
19968;DHT22;10145;49.152;9.282;2023-03-23T07:29:25;14.10;97.70
19968;DHT22;10145;49.152;9.282;2023-03-23T07:31:52;14.10;97.30
19968;DHT22;10145;49.152;9.282;2023-03-23T07:34:18;14.10;97.60
19968;DHT22;10145;49.152;9.282;2023-03-23T07:36:44;14.10;97.40
19968;DHT22;10145;49.152;9.282;2023-03-23T07:39:11;14.10;97.40
19968;DHT22;10145;49.152;9.282;2023-03-23T07:41:37;14.20;97.30
19968;DHT22;10145;49.152;9.282;2023-03-23T07:44:03;14.40;97.50
19968;DHT22;10145;49.152;9.282;2023-03-23T07:46:29;14.40;97.10
19968;DHT22;10145;49.152;9.282;2023-03-23T07:48:55;14.50;97.20
19968;DHT22;10145;49.152;9.282;2023-03-23T07:51:22;14.60;97.10
19968;DHT22;10145;49.152;9.282;2023-03-23T07:53:48;14.80;96.80
19968;DHT22;10145;49.152;9.282;2023-03-23T07:56:15;15.20;96.50
19968;DHT22;10145;49.152;9.282;2023-03-23T07:58:44;15.50;96.20
19968;DHT22;10145;49.152;9.282;2023-03-23T08:01:10;15.70;95.90
19968;DHT22;10145;49.152;9.282;2023-03-23T08:03:36;15.80;96.10
19968;DHT22;10145;49.152;9.282;2023-03-23T08:06:02;16.00;96.10
19968;DHT22;10145;49.152;9.282;2023-03-23T08:08:28;16.10;95.60
19968;DHT22;10145;49.152;9.282;2023-03-23T08:10:53;16.10;95.40
19968;DHT22;10145;49.152;9.282;2023-03-23T08:13:19;16.10;95.30
19968;DHT22;10145;49.152;9.282;2023-03-23T08:15:45;15.90;95.40
19968;DHT22;10145;49.152;9.282;2023-03-23T08:18:10;15.90;96.00
19968;DHT22;10145;49.152;9.282;2023-03-23T08:20:37;16.00;95.90
19968;DHT22;10145;49.152;9.282;2023-03-23T08:23:03;15.90;95.80
19968;DHT22;10145;49.152;9.282;2023-03-23T08:25:30;15.90;96.10
19968;DHT22;10145;49.152;9.282;2023-03-23T08:28:00;15.90;95.80
19968;DHT22;10145;49.152;9.282;2023-03-23T08:30:29;15.90;96.00
19968;DHT22;10145;49.152;9.282;2023-03-23T08:32:59;15.90;96.50
19968;DHT22;10145;49.152;9.282;2023-03-23T08:35:26;15.80;96.30
19968;DHT22;10145;49.152;9.282;2023-03-23T08:37:52;15.80;96.80
19968;DHT22;10145;49.152;9.282;2023-03-23T08:40:21;15.60;96.80
19968;DHT22;10145;49.152;9.282;2023-03-23T08:42:48;15.60;97.10
19968;DHT22;10145;49.152;9.282;2023-03-23T08:45:20;15.40;97.80
19968;DHT22;10145;49.152;9.282;2023-03-23T08:47:46;15.20;98.10
19968;DHT22;10145;49.152;9.282;2023-03-23T08:50:24;15.30;98.30
19968;DHT22;10145;49.152;9.282;2023-03-23T08:52:50;15.40;97.80
19968;DHT22;10145;49.152;9.282;2023-03-23T08:55:16;15.50;97.90
19968;DHT22;10145;49.152;9.282;2023-03-23T08:57:43;15.80;98.30
19968;DHT22;10145;49.152;9.282;2023-03-23T09:00:16;15.90;97.30
19968;DHT22;10145;49.152;9.282;2023-03-23T09:02:51;16.10;97.90
19968;DHT22;10145;49.152;9.282;2023-03-23T09:05:19;16.10;97.60
19968;DHT22;10145;49.152;9.282;2023-03-23T09:07:47;16.00;97.90
19968;DHT22;10145;49.152;9.282;2023-03-23T09:10:14;16.00;98.20
19968;DHT22;10145;49.152;9.282;2023-03-23T09:12:41;16.10;97.80
19968;DHT22;10145;49.152;9.282;2023-03-23T09:15:08;16.10;98.10
19968;DHT22;10145;49.152;9.282;2023-03-23T09:17:39;16.20;97.50
19968;DHT22;10145;49.152;9.282;2023-03-23T09:20:06;16.20;97.20
19968;DHT22;10145;49.152;9.282;2023-03-23T09:22:44;16.10;97.00
19968;DHT22;10145;49.152;9.282;2023-03-23T09:25:15;16.10;97.00
19968;DHT22;10145;49.152;9.282;2023-03-23T09:27:44;16.10;96.80
19968;DHT22;10145;49.152;9.282;2023-03-23T09:30:13;16.20;96.90
19968;DHT22;10145;49.152;9.282;2023-03-23T09:32:40;16.00;96.90
19968;DHT22;10145;49.152;9.282;2023-03-23T09:35:09;15.90;97.50
19968;DHT22;10145;49.152;9.282;2023-03-23T09:37:36;15.90;97.40
19968;DHT22;10145;49.152;9.282;2023-03-23T09:40:04;16.00;97.80
19968;DHT22;10145;49.152;9.282;2023-03-23T09:43:06;15.90;97.40
19968;DHT22;10145;49.152;9.282;2023-03-23T09:45:48;15.90;97.60
19968;DHT22;10145;49.152;9.282;2023-03-23T09:51:26;16.00;97.60
19968;DHT22;10145;49.152;9.282;2023-03-23T09:54:03;16.20;97.50
19968;DHT22;10145;49.152;9.282;2023-03-23T09:56:31;16.40;97.70
19968;DHT22;10145;49.152;9.282;2023-03-23T09:59:10;16.20;97.40
19968;DHT22;10145;49.152;9.282;2023-03-23T10:02:00;16.10;98.40
19968;DHT22;10145;49.152;9.282;2023-03-23T10:04:49;16.30;98.30
19968;DHT22;10145;49.152;9.282;2023-03-23T10:07:20;16.30;98.30
19968;DHT22;10145;49.152;9.282;2023-03-23T10:09:50;16.30;98.80
19968;DHT22;10145;49.152;9.282;2023-03-23T10:17:24;16.10;99.50
19968;DHT22;10145;49.152;9.282;2023-03-23T10:20:16;16.00;99.80
19968;DHT22;10145;49.152;9.282;2023-03-23T10:23:02;15.80;99.90
19968;DHT22;10145;49.152;9.282;2023-03-23T10:25:34;15.90;99.90
19968;DHT22;10145;49.152;9.282;2023-03-23T10:28:18;15.70;99.90
19968;DHT22;10145;49.152;9.282;2023-03-23T10:30:55;15.40;99.90
19968;DHT22;10145;49.152;9.282;2023-03-23T10:33:44;15.40;99.90
19968;DHT22;10145;49.152;9.282;2023-03-23T10:36:21;15.50;99.90
19968;DHT22;10145;49.152;9.282;2023-03-23T10:39:02;15.80;99.90
19968;DHT22;10145;49.152;9.282;2023-03-23T10:41:30;16.30;99.90
19968;DHT22;10145;49.152;9.282;2023-03-23T10:43:56;16.70;99.90
19968;DHT22;10145;49.152;9.282;2023-03-23T10:47:00;17.10;99.50
19968;DHT22;10145;49.152;9.282;2023-03-23T10:49:38;17.20;99.90
19968;DHT22;10145;49.152;9.282;2023-03-23T10:57:37;17.20;99.20
19968;DHT22;10145;49.152;9.282;2023-03-23T11:00:16;16.90;99.30
19968;DHT22;10145;49.152;9.282;2023-03-23T11:02:56;16.70;99.90
19968;DHT22;10145;49.152;9.282;2023-03-23T11:05:25;16.50;99.90
19968;DHT22;10145;49.152;9.282;2023-03-23T11:07:55;16.30;99.90
19968;DHT22;10145;49.152;9.282;2023-03-23T11:10:28;16.00;99.90
19968;DHT22;10145;49.152;9.282;2023-03-23T11:12:57;15.90;99.90
19968;DHT22;10145;49.152;9.282;2023-03-23T11:15:32;15.80;99.90
19968;DHT22;10145;49.152;9.282;2023-03-23T11:18:04;15.90;99.90
19968;DHT22;10145;49.152;9.282;2023-03-23T11:20:36;16.30;99.90
19968;DHT22;10145;49.152;9.282;2023-03-23T11:23:22;16.10;99.90
19968;DHT22;10145;49.152;9.282;2023-03-23T11:28:20;16.10;99.90
19968;DHT22;10145;49.152;9.282;2023-03-23T11:30:46;16.10;99.90
19968;DHT22;10145;49.152;9.282;2023-03-23T11:33:12;16.00;99.90
19968;DHT22;10145;49.152;9.282;2023-03-23T11:35:44;15.80;99.90
19968;DHT22;10145;49.152;9.282;2023-03-23T11:38:18;15.60;99.90
19968;DHT22;10145;49.152;9.282;2023-03-23T11:40:48;15.50;99.90
19968;DHT22;10145;49.152;9.282;2023-03-23T11:43:18;15.40;99.90
19968;DHT22;10145;49.152;9.282;2023-03-23T11:46:07;15.30;99.90
19968;DHT22;10145;49.152;9.282;2023-03-23T11:48:55;15.10;99.90
19968;DHT22;10145;49.152;9.282;2023-03-23T11:51:45;15.10;99.90
19968;DHT22;10145;49.152;9.282;2023-03-23T11:54:32;15.30;99.90
19968;DHT22;10145;49.152;9.282;2023-03-23T11:56:58;15.30;99.90
19968;DHT22;10145;49.152;9.282;2023-03-23T11:59:35;15.50;99.90
19968;DHT22;10145;49.152;9.282;2023-03-23T12:02:32;15.60;99.90
19968;DHT22;10145;49.152;9.282;2023-03-23T12:05:26;15.70;99.90
19968;DHT22;10145;49.152;9.282;2023-03-23T12:13:27;16.30;99.30
19968;DHT22;10145;49.152;9.282;2023-03-23T12:16:20;16.30;99.40
19968;DHT22;10145;49.152;9.282;2023-03-23T12:35:22;15.80;99.40
19968;DHT22;10145;49.152;9.282;2023-03-23T12:43:44;15.80;99.80
19968;DHT22;10145;49.152;9.282;2023-03-23T12:49:05;15.60;99.80
19968;DHT22;10145;49.152;9.282;2023-03-23T12:51:32;15.60;99.40
19968;DHT22;10145;49.152;9.282;2023-03-23T12:56:46;15.60;99.80
19968;DHT22;10145;49.152;9.282;2023-03-23T12:59:43;15.60;99.70
19968;DHT22;10145;49.152;9.282;2023-03-23T13:05:00;15.60;99.90
19968;DHT22;10145;49.152;9.282;2023-03-23T13:07:32;15.70;99.60
19968;DHT22;10145;49.152;9.282;2023-03-23T13:10:08;15.70;99.60
19968;DHT22;10145;49.152;9.282;2023-03-23T13:12:37;15.60;99.70
19968;DHT22;10145;49.152;9.282;2023-03-23T13:17:52;15.80;99.10
19968;DHT22;10145;49.152;9.282;2023-03-23T13:23:26;15.80;99.50
19968;DHT22;10145;49.152;9.282;2023-03-23T13:26:00;15.80;99.10
19968;DHT22;10145;49.152;9.282;2023-03-23T13:33:53;16.10;98.70
19968;DHT22;10145;49.152;9.282;2023-03-23T13:36:34;16.30;98.10
19968;DHT22;10145;49.152;9.282;2023-03-23T13:39:04;16.30;98.10
19968;DHT22;10145;49.152;9.282;2023-03-23T13:41:33;16.40;98.20
19968;DHT22;10145;49.152;9.282;2023-03-23T13:44:19;16.40;98.30
19968;DHT22;10145;49.152;9.282;2023-03-23T13:46:54;16.50;97.60
19968;DHT22;10145;49.152;9.282;2023-03-23T13:49:22;16.30;97.70
19968;DHT22;10145;49.152;9.282;2023-03-23T13:54:29;16.30;98.00
19968;DHT22;10145;49.152;9.282;2023-03-23T13:56:57;16.40;99.00
19968;DHT22;10145;49.152;9.282;2023-03-23T14:01:56;16.90;97.20
19968;DHT22;10145;49.152;9.282;2023-03-23T14:04:23;17.20;96.80
19968;DHT22;10145;49.152;9.282;2023-03-23T14:06:56;17.30;96.90
19968;DHT22;10145;49.152;9.282;2023-03-23T14:09:32;17.60;96.10
19968;DHT22;10145;49.152;9.282;2023-03-23T14:12:02;17.60;96.40
19968;DHT22;10145;49.152;9.282;2023-03-23T14:14:40;17.90;95.80
19968;DHT22;10145;49.152;9.282;2023-03-23T14:17:13;17.80;95.60
19968;DHT22;10145;49.152;9.282;2023-03-23T14:19:41;17.70;95.70
19968;DHT22;10145;49.152;9.282;2023-03-23T14:22:23;17.50;96.20
19968;DHT22;10145;49.152;9.282;2023-03-23T14:24:49;17.40;96.30
19968;DHT22;10145;49.152;9.282;2023-03-23T14:27:18;17.30;96.10
19968;DHT22;10145;49.152;9.282;2023-03-23T14:29:44;17.00;96.40
19968;DHT22;10145;49.152;9.282;2023-03-23T14:32:15;17.00;96.90
19968;DHT22;10145;49.152;9.282;2023-03-23T14:34:41;16.80;97.10
19968;DHT22;10145;49.152;9.282;2023-03-23T14:37:15;16.60;97.70
19968;DHT22;10145;49.152;9.282;2023-03-23T14:39:45;16.40;97.80
19968;DHT22;10145;49.152;9.282;2023-03-23T14:42:16;16.20;97.80
19968;DHT22;10145;49.152;9.282;2023-03-23T14:44:45;16.10;98.20
19968;DHT22;10145;49.152;9.282;2023-03-23T14:47:30;16.10;98.30
19968;DHT22;10145;49.152;9.282;2023-03-23T14:49:58;15.90;98.50
19968;DHT22;10145;49.152;9.282;2023-03-23T14:52:32;15.90;98.50
19968;DHT22;10145;49.152;9.282;2023-03-23T14:55:20;15.80;98.40
19968;DHT22;10145;49.152;9.282;2023-03-23T14:57:48;15.70;98.70
19968;DHT22;10145;49.152;9.282;2023-03-23T15:00:22;15.70;98.80
19968;DHT22;10145;49.152;9.282;2023-03-23T15:02:55;15.70;98.90
19968;DHT22;10145;49.152;9.282;2023-03-23T15:05:27;15.70;98.70
19968;DHT22;10145;49.152;9.282;2023-03-23T15:07:57;15.70;99.10
19968;DHT22;10145;49.152;9.282;2023-03-23T15:10:25;15.60;99.40
19968;DHT22;10145;49.152;9.282;2023-03-23T15:12:51;15.60;99.50
19968;DHT22;10145;49.152;9.282;2023-03-23T15:15:26;15.60;99.90
19968;DHT22;10145;49.152;9.282;2023-03-23T15:17:53;15.50;99.90
19968;DHT22;10145;49.152;9.282;2023-03-23T15:20:46;15.50;99.80
19968;DHT22;10145;49.152;9.282;2023-03-23T15:23:16;15.50;99.60
19968;DHT22;10145;49.152;9.282;2023-03-23T15:25:49;15.50;99.90
19968;DHT22;10145;49.152;9.282;2023-03-23T15:28:18;15.40;99.90
19968;DHT22;10145;49.152;9.282;2023-03-23T15:30:55;15.40;99.90
19968;DHT22;10145;49.152;9.282;2023-03-23T15:33:23;15.40;99.90
19968;DHT22;10145;49.152;9.282;2023-03-23T15:35:54;15.40;99.90
19968;DHT22;10145;49.152;9.282;2023-03-23T15:38:25;15.30;99.90
19968;DHT22;10145;49.152;9.282;2023-03-23T15:40:54;15.40;99.90
19968;DHT22;10145;49.152;9.282;2023-03-23T15:43:24;15.30;99.90
19968;DHT22;10145;49.152;9.282;2023-03-23T15:51:12;15.30;99.90
19968;DHT22;10145;49.152;9.282;2023-03-23T15:53:39;15.20;99.90
19968;DHT22;10145;49.152;9.282;2023-03-23T15:56:07;15.10;99.90
19968;DHT22;10145;49.152;9.282;2023-03-23T15:58:34;15.10;99.90
19968;DHT22;10145;49.152;9.282;2023-03-23T16:01:03;15.00;99.90
19968;DHT22;10145;49.152;9.282;2023-03-23T16:03:55;15.00;99.90
19968;DHT22;10145;49.152;9.282;2023-03-23T16:06:24;15.10;99.90
19968;DHT22;10145;49.152;9.282;2023-03-23T16:08:54;15.10;99.90
19968;DHT22;10145;49.152;9.282;2023-03-23T16:11:23;15.10;99.90
19968;DHT22;10145;49.152;9.282;2023-03-23T16:13:49;15.10;99.90
19968;DHT22;10145;49.152;9.282;2023-03-23T16:16:18;15.10;99.90
19968;DHT22;10145;49.152;9.282;2023-03-23T16:18:44;15.10;99.90
19968;DHT22;10145;49.152;9.282;2023-03-23T16:21:09;15.00;99.90
19968;DHT22;10145;49.152;9.282;2023-03-23T16:23:35;15.00;99.90
19968;DHT22;10145;49.152;9.282;2023-03-23T16:26:01;15.00;99.90
19968;DHT22;10145;49.152;9.282;2023-03-23T16:28:26;14.90;99.90
19968;DHT22;10145;49.152;9.282;2023-03-23T16:30:52;14.80;99.90
19968;DHT22;10145;49.152;9.282;2023-03-23T16:33:18;14.80;99.90
19968;DHT22;10145;49.152;9.282;2023-03-23T16:35:43;14.70;99.90
19968;DHT22;10145;49.152;9.282;2023-03-23T16:38:13;14.80;99.90
19968;DHT22;10145;49.152;9.282;2023-03-23T16:40:41;14.80;99.90
19968;DHT22;10145;49.152;9.282;2023-03-23T16:43:08;14.80;99.90
19968;DHT22;10145;49.152;9.282;2023-03-23T16:45:33;14.70;99.90
19968;DHT22;10145;49.152;9.282;2023-03-23T16:47:59;14.70;99.90
19968;DHT22;10145;49.152;9.282;2023-03-23T16:50:27;14.90;99.90
19968;DHT22;10145;49.152;9.282;2023-03-23T16:52:54;14.90;99.90
19968;DHT22;10145;49.152;9.282;2023-03-23T16:55:19;14.90;99.90
19968;DHT22;10145;49.152;9.282;2023-03-23T16:57:45;15.00;99.90
19968;DHT22;10145;49.152;9.282;2023-03-23T17:00:14;14.90;99.90
19968;DHT22;10145;49.152;9.282;2023-03-23T17:02:41;14.80;99.90
19968;DHT22;10145;49.152;9.282;2023-03-23T17:05:11;14.70;99.90
19968;DHT22;10145;49.152;9.282;2023-03-23T17:07:39;14.60;99.90
19968;DHT22;10145;49.152;9.282;2023-03-23T17:10:07;14.50;99.90
19968;DHT22;10145;49.152;9.282;2023-03-23T17:12:32;14.40;99.90
19968;DHT22;10145;49.152;9.282;2023-03-23T17:14:58;14.30;99.90
19968;DHT22;10145;49.152;9.282;2023-03-23T17:17:25;14.10;99.90
19968;DHT22;10145;49.152;9.282;2023-03-23T17:19:50;14.10;99.90